createdAt,value
2023-04-20T00:01:15.502Z,90.35
2023-04-20T00:06:37.432Z,90.62
2023-04-20T00:11:59.343Z,91.37
2023-04-20T00:17:21.284Z,92.27
2023-04-20T00:22:42.763Z,92.36
2023-04-20T00:28:04.867Z,97.38
2023-04-20T00:33:28.577Z,97.11
2023-04-20T00:38:50.536Z,95.35
2023-04-20T00:44:14.547Z,95.30
2023-04-20T01:48:37.480Z,100.00
2023-04-20T01:54:00.805Z,100.00
2023-04-20T01:59:23.554Z,100.00
2023-04-20T02:04:46.043Z,100.00
2023-04-20T02:10:08.710Z,100.00
2023-04-20T02:15:31.575Z,100.00
2023-04-20T02:20:54.488Z,100.00
2023-04-20T02:26:17.679Z,100.00
2023-04-20T02:31:40.380Z,100.00
2023-04-20T02:37:02.874Z,100.00
2023-04-20T02:42:25.047Z,100.00
2023-04-20T02:47:51.169Z,100.00
2023-04-20T03:05:14.340Z,100.00
2023-04-20T03:10:42.310Z,100.00
2023-04-20T03:16:12.680Z,100.00
2023-04-20T03:21:39.146Z,100.00
2023-04-20T03:27:01.561Z,100.00
2023-04-20T03:32:33.573Z,100.00
2023-04-20T03:37:55.899Z,100.00
2023-04-20T03:43:19.444Z,100.00
2023-04-20T03:48:41.831Z,100.00
2023-04-20T03:54:12.329Z,100.00
2023-04-20T03:59:34.783Z,100.00
2023-04-20T04:04:58.956Z,100.00
2023-04-20T04:10:21.968Z,100.00
2023-04-20T04:15:45.426Z,100.00
2023-04-20T04:21:10.851Z,100.00
2023-04-20T04:26:36.459Z,100.00
2023-04-20T04:31:59.546Z,100.00
2023-04-20T04:37:23.304Z,100.00
2023-04-20T04:42:50.166Z,99.04
2023-04-20T04:48:13.233Z,96.68
2023-04-20T04:53:35.561Z,95.46
2023-04-20T04:58:58.259Z,94.21
2023-04-20T05:04:20.886Z,87.52
2023-04-20T05:09:42.973Z,79.16
2023-04-20T05:15:05.352Z,71.96
2023-04-20T05:20:27.392Z,67.54
2023-04-20T05:25:51.826Z,54.48
2023-04-20T05:31:18.900Z,54.15
2023-04-20T05:36:41.908Z,54.73
2023-04-20T05:42:03.723Z,51.51
2023-04-20T05:47:25.810Z,50.77
2023-04-20T05:52:48.464Z,51.80
2023-04-20T05:58:13.200Z,52.05
2023-04-20T06:03:35.703Z,51.70
2023-04-20T06:08:58.756Z,51.72
2023-04-20T06:14:21.095Z,52.33
2023-04-20T06:19:43.453Z,50.78
2023-04-20T06:25:06.043Z,47.28
2023-04-20T06:30:28.217Z,45.94
2023-04-20T06:35:52.194Z,46.02
2023-04-20T06:41:14.469Z,46.72
2023-04-20T06:46:36.896Z,45.73
2023-04-20T06:51:58.829Z,44.85
2023-04-20T06:57:21.265Z,46.08
2023-04-20T07:02:48.479Z,47.15
2023-04-20T07:08:10.777Z,46.36
2023-04-20T07:13:33.985Z,43.79
2023-04-20T07:18:56.234Z,43.48
2023-04-20T07:24:18.236Z,42.27
2023-04-20T07:29:40.108Z,43.19
2023-04-20T07:35:02.243Z,43.32
2023-04-20T07:40:25.814Z,44.36
2023-04-20T07:45:48.993Z,43.97
2023-04-20T07:51:11.002Z,44.18
2023-04-20T07:56:32.753Z,43.34
2023-04-20T08:02:01.743Z,42.91
2023-04-20T08:07:24.770Z,41.07
2023-04-20T08:12:48.999Z,40.50
2023-04-20T08:18:12.808Z,41.50
2023-04-20T08:23:35.129Z,42.11
2023-04-20T08:28:57.153Z,42.43
2023-04-20T08:34:19.206Z,42.55
2023-04-20T08:39:41.373Z,42.46
2023-04-20T08:45:03.089Z,42.62
2023-04-20T08:50:27.566Z,42.22
2023-04-20T08:55:51.692Z,42.15
2023-04-20T09:01:17.644Z,42.45
2023-04-20T09:06:45.644Z,42.35
2023-04-20T09:12:10.938Z,42.30
2023-04-20T09:17:37.960Z,42.40
2023-04-20T09:23:12.489Z,42.10
2023-04-20T09:28:39.821Z,41.90
2023-04-20T09:34:07.805Z,41.34
2023-04-20T09:39:30.987Z,40.30
2023-04-20T09:44:53.901Z,40.14
2023-04-20T09:55:49.132Z,41.08
2023-04-20T10:01:12.124Z,41.85
2023-04-20T10:06:37.745Z,42.01
2023-04-20T10:12:11.262Z,43.77
2023-04-20T10:17:34.755Z,45.36
2023-04-20T10:23:10.275Z,46.30
2023-04-20T10:28:42.442Z,45.13
2023-04-20T10:34:04.040Z,43.90
2023-04-20T10:39:26.645Z,43.90
2023-04-20T10:44:52.864Z,43.51
2023-04-20T10:50:16.631Z,42.76
2023-04-20T10:55:38.317Z,42.34
2023-04-20T11:01:07.444Z,41.14
2023-04-20T11:06:29.814Z,40.05
2023-04-20T11:12:06.385Z,40.05
2023-04-20T11:17:40.150Z,40.55
2023-04-20T11:23:05.533Z,39.85
2023-04-20T11:28:35.399Z,39.51
2023-04-20T11:33:59.431Z,39.14
2023-04-20T11:39:30.548Z,39.38
2023-04-20T11:44:53.026Z,38.29
2023-04-20T11:50:15.550Z,35.76
2023-04-20T11:55:38.215Z,34.68
2023-04-20T12:01:01.028Z,36.41
2023-04-20T12:06:23.225Z,36.84
2023-04-20T12:11:45.063Z,37.50
2023-04-20T12:17:07.055Z,37.08
2023-04-20T12:22:29.107Z,37.40
2023-04-20T12:27:51.382Z,36.67
2023-04-20T12:33:15.647Z,35.57
2023-04-20T12:38:40.163Z,36.03
2023-04-20T12:44:05.324Z,36.59
2023-04-20T12:49:30.591Z,36.89
2023-04-20T12:54:53.813Z,36.93
2023-04-20T13:00:17.187Z,36.25
2023-04-20T13:05:39.639Z,36.70
2023-04-20T13:11:02.053Z,36.60
2023-04-20T13:16:25.095Z,36.52
2023-04-20T13:21:46.957Z,36.68
2023-04-20T13:27:11.203Z,37.21
2023-04-20T13:32:34.183Z,37.27
2023-04-20T13:37:57.725Z,36.91
2023-04-20T13:43:21.535Z,37.29
2023-04-20T13:48:44.801Z,36.80
2023-04-20T13:54:07.333Z,37.53
2023-04-20T13:59:30.199Z,37.26
2023-04-20T14:04:52.656Z,36.84
2023-04-20T14:10:15.278Z,36.96
2023-04-20T14:15:37.800Z,37.54
2023-04-20T14:21:00.352Z,36.84
2023-04-20T14:26:22.787Z,37.25
2023-04-20T14:31:45.699Z,37.37
2023-04-20T14:37:08.383Z,37.54
2023-04-20T14:42:31.411Z,37.65
2023-04-20T14:47:55.759Z,37.94
2023-04-20T14:53:19.031Z,38.20
2023-04-20T14:58:43.241Z,38.38
2023-04-20T15:04:06.603Z,38.22
2023-04-20T15:09:30.012Z,38.54
2023-04-20T15:15:01.707Z,38.81
2023-04-20T15:20:26.783Z,39.06
2023-04-20T15:25:49.792Z,39.74
2023-04-20T15:31:12.489Z,40.02
2023-04-20T15:36:35.290Z,40.19
2023-04-20T15:41:58.386Z,40.57
2023-04-20T15:47:37.864Z,40.88
2023-04-20T15:53:04.238Z,41.17
2023-04-20T15:58:28.143Z,41.74
2023-04-20T16:03:50.887Z,41.69
2023-04-20T16:09:13.779Z,42.39
2023-04-20T16:14:39.279Z,42.88
2023-04-20T16:20:08.396Z,43.57
2023-04-20T16:25:34.948Z,44.07
2023-04-20T16:30:57.781Z,44.20
2023-04-20T16:36:21.509Z,44.73
2023-04-20T16:41:43.897Z,45.16
2023-04-20T16:47:06.957Z,45.41
2023-04-20T16:52:30.366Z,46.01
2023-04-20T16:58:00.458Z,46.89
2023-04-20T17:03:22.737Z,47.93
2023-04-20T17:08:45.897Z,48.25
2023-04-20T17:14:11.778Z,48.36
2023-04-20T17:19:35.383Z,48.72
2023-04-20T17:24:57.595Z,48.76
2023-04-20T17:30:19.869Z,48.26
2023-04-20T17:35:42.486Z,48.28
2023-04-20T17:41:05.437Z,48.44
2023-04-20T17:46:27.924Z,48.53
2023-04-20T17:51:50.480Z,48.29
2023-04-20T17:57:14.480Z,48.60
2023-04-20T18:02:36.676Z,48.54
2023-04-20T18:07:58.461Z,49.16
2023-04-20T18:13:20.254Z,49.16
2023-04-20T18:18:44.590Z,49.92
2023-04-20T18:24:07.313Z,50.12
2023-04-20T18:29:29.515Z,50.45
2023-04-20T18:34:52.420Z,50.77
2023-04-20T18:40:16.465Z,51.25
2023-04-20T18:52:06.407Z,51.60
2023-04-20T18:57:29.628Z,51.58
2023-04-20T19:02:52.180Z,51.96
2023-04-20T19:08:17.408Z,52.42
2023-04-20T19:13:45.802Z,52.90
2023-04-20T19:19:08.744Z,53.04
2023-04-20T19:24:34.952Z,53.36
2023-04-20T19:29:57.524Z,53.80
2023-04-20T19:35:20.091Z,53.75
2023-04-20T19:40:42.388Z,53.96
2023-04-20T19:46:38.408Z,54.44
2023-04-20T19:52:03.763Z,54.66
2023-04-20T19:57:25.600Z,54.67
2023-04-20T20:02:47.540Z,55.06
2023-04-20T20:08:09.762Z,55.23
2023-04-20T20:13:32.016Z,55.69
2023-04-20T20:18:53.444Z,55.81
2023-04-20T20:24:15.368Z,55.75
2023-04-20T20:29:37.958Z,56.14
2023-04-20T20:35:01.218Z,56.04
2023-04-20T20:40:25.878Z,56.69
2023-04-20T20:45:47.910Z,57.37
2023-04-20T20:51:09.705Z,57.77
2023-04-20T20:56:31.919Z,58.21
2023-04-20T21:01:54.853Z,58.90
2023-04-20T21:07:19.256Z,59.63
2023-04-20T21:12:41.299Z,60.03
2023-04-20T21:18:03.338Z,60.43
2023-04-20T21:23:25.278Z,60.96
2023-04-20T21:28:47.059Z,60.24
2023-04-20T21:34:09.086Z,59.99
2023-04-20T21:39:31.656Z,60.32
2023-04-20T21:44:53.683Z,60.06
2023-04-20T21:50:28.972Z,60.66
2023-04-20T21:55:51.439Z,61.47
2023-04-20T22:01:12.975Z,62.18
2023-04-20T22:06:35.479Z,62.26
2023-04-20T22:11:58.137Z,63.15
2023-04-20T22:17:20.375Z,63.30
2023-04-20T22:22:42.351Z,63.53
2023-04-20T22:28:04.351Z,63.70
2023-04-20T22:33:25.840Z,64.24
2023-04-20T22:38:47.823Z,63.91
2023-04-20T22:44:09.582Z,64.35
2023-04-20T22:49:32.284Z,64.44
2023-04-20T22:54:54.226Z,64.89
2023-04-20T23:00:16.965Z,64.92
2023-04-20T23:05:39.577Z,65.98
2023-04-20T23:11:01.926Z,66.41
2023-04-20T23:16:24.008Z,66.41
2023-04-20T23:21:46.335Z,67.04
2023-04-20T23:27:08.477Z,66.31
2023-04-20T23:32:31.277Z,66.56
2023-04-20T23:37:55.789Z,66.93
2023-04-20T23:43:17.798Z,67.14
2023-04-20T23:48:39.838Z,67.39
2023-04-20T23:54:04.820Z,67.73
2023-04-20T23:59:35.067Z,67.94
